sensor_id;sensor_type;location;lat;lon;timestamp;pressure;altitude;pressure_sealevel;temperature;humidity
71697;BME280;68167;59.120;37.898;2023-05-14T00:01:45;100905.97;;;9.44;54.62
71697;BME280;68167;59.120;37.898;2023-05-14T00:04:12;100920.81;;;9.51;54.85
71697;BME280;68167;59.120;37.898;2023-05-14T00:06:38;100970.41;;;9.76;54.90
71697;BME280;68167;59.120;37.898;2023-05-14T00:09:05;100928.63;;;9.46;54.97
71697;BME280;68167;59.120;37.898;2023-05-14T00:11:31;100969.13;;;9.67;55.28
71697;BME280;68167;59.120;37.898;2023-05-14T00:13:58;100933.34;;;9.44;55.59
71697;BME280;68167;59.120;37.898;2023-05-14T00:16:24;100966.75;;;9.58;54.79
71697;BME280;68167;59.120;37.898;2023-05-14T00:18:51;100935.72;;;9.34;55.55
71697;BME280;68167;59.120;37.898;2023-05-14T00:21:17;100928.03;;;9.26;55.86
71697;BME280;68167;59.120;37.898;2023-05-14T00:23:44;100925.38;;;9.26;55.73
71697;BME280;68167;59.120;37.898;2023-05-14T00:26:10;100965.47;;;9.43;55.83
71697;BME280;68167;59.120;37.898;2023-05-14T00:28:38;100970.78;;;9.43;55.44
71697;BME280;68167;59.120;37.898;2023-05-14T00:31:04;100982.22;;;9.43;55.66
71697;BME280;68167;59.120;37.898;2023-05-14T00:33:31;100979.34;;;9.45;55.73
71697;BME280;68167;59.120;37.898;2023-05-14T00:35:58;100976.53;;;9.40;56.05
71697;BME280;68167;59.120;37.898;2023-05-14T00:38:24;100979.47;;;9.32;55.99
71697;BME280;68167;59.120;37.898;2023-05-14T00:40:53;100944.91;;;9.13;56.53
71697;BME280;68167;59.120;37.898;2023-05-14T00:43:20;100942.66;;;9.10;56.46
71697;BME280;68167;59.120;37.898;2023-05-14T00:45:50;101002.91;;;9.41;57.00
71697;BME280;68167;59.120;37.898;2023-05-14T00:48:17;100994.16;;;9.34;56.93
71697;BME280;68167;59.120;37.898;2023-05-14T00:50:44;100960.22;;;9.11;56.41
71697;BME280;68167;59.120;37.898;2023-05-14T00:53:12;100999.47;;;9.34;56.17
71697;BME280;68167;59.120;37.898;2023-05-14T00:55:40;101009.84;;;9.42;57.02
71697;BME280;68167;59.120;37.898;2023-05-14T00:58:12;100956.75;;;9.11;56.49
71697;BME280;68167;59.120;37.898;2023-05-14T01:00:39;100998.22;;;9.37;56.85
71697;BME280;68167;59.120;37.898;2023-05-14T01:03:07;100979.75;;;9.23;56.60
71697;BME280;68167;59.120;37.898;2023-05-14T01:05:52;100964.31;;;9.14;56.36
71697;BME280;68167;59.120;37.898;2023-05-14T01:08:26;101000.88;;;9.37;56.77
71697;BME280;68167;59.120;37.898;2023-05-14T01:11:24;101019.59;;;9.48;56.34
71697;BME280;68167;59.120;37.898;2023-05-14T01:16:39;101003.88;;;9.47;57.15
71697;BME280;68167;59.120;37.898;2023-05-14T01:19:09;100997.41;;;9.36;57.27
71697;BME280;68167;59.120;37.898;2023-05-14T01:21:46;101017.47;;;9.57;57.43
71697;BME280;68167;59.120;37.898;2023-05-14T01:24:13;101000.81;;;9.43;57.06
71697;BME280;68167;59.120;37.898;2023-05-14T01:26:39;101021.91;;;9.63;57.12
71697;BME280;68167;59.120;37.898;2023-05-14T01:29:18;101034.69;;;9.73;57.03
71697;BME280;68167;59.120;37.898;2023-05-14T01:31:49;101005.81;;;9.58;57.10
71697;BME280;68167;59.120;37.898;2023-05-14T01:34:20;101037.84;;;9.81;57.65
71697;BME280;68167;59.120;37.898;2023-05-14T01:36:49;101010.19;;;9.71;56.79
71697;BME280;68167;59.120;37.898;2023-05-14T01:39:17;100988.81;;;9.59;57.45
71697;BME280;68167;59.120;37.898;2023-05-14T01:41:44;101033.56;;;9.80;56.87
71697;BME280;68167;59.120;37.898;2023-05-14T01:44:11;101028.84;;;9.82;57.45
71697;BME280;68167;59.120;37.898;2023-05-14T01:46:38;101005.53;;;9.66;56.70
71697;BME280;68167;59.120;37.898;2023-05-14T01:49:04;101044.97;;;9.87;57.03
71697;BME280;68167;59.120;37.898;2023-05-14T01:51:31;101038.59;;;9.88;57.46
71697;BME280;68167;59.120;37.898;2023-05-14T01:53:57;100999.59;;;9.64;57.36
71697;BME280;68167;59.120;37.898;2023-05-14T01:56:24;101037.78;;;9.88;57.43
71697;BME280;68167;59.120;37.898;2023-05-14T01:58:51;100989.03;;;9.57;57.42
71697;BME280;68167;59.120;37.898;2023-05-14T02:01:17;101032.09;;;9.84;56.86
71697;BME280;68167;59.120;37.898;2023-05-14T02:03:44;101003.00;;;9.71;57.23
71697;BME280;68167;59.120;37.898;2023-05-14T02:06:10;101025.31;;;9.88;57.36
71697;BME280;68167;59.120;37.898;2023-05-14T02:08:37;101016.59;;;9.81;57.07
71697;BME280;68167;59.120;37.898;2023-05-14T02:11:03;101011.84;;;9.83;56.89
71697;BME280;68167;59.120;37.898;2023-05-14T02:13:30;101003.50;;;9.80;57.35
71697;BME280;68167;59.120;37.898;2023-05-14T02:15:56;101043.72;;;10.08;56.98
71697;BME280;68167;59.120;37.898;2023-05-14T02:18:23;101059.56;;;10.21;57.17
71697;BME280;68167;59.120;37.898;2023-05-14T02:20:50;101057.63;;;10.29;56.37
71697;BME280;68167;59.120;37.898;2023-05-14T02:23:16;101024.28;;;10.08;56.76
71697;BME280;68167;59.120;37.898;2023-05-14T02:25:43;101063.47;;;10.37;56.45
71697;BME280;68167;59.120;37.898;2023-05-14T02:28:10;101029.88;;;10.18;56.30
71697;BME280;68167;59.120;37.898;2023-05-14T02:30:38;101044.56;;;10.27;56.14
71697;BME280;68167;59.120;37.898;2023-05-14T02:33:05;101079.25;;;10.50;56.16
71697;BME280;68167;59.120;37.898;2023-05-14T02:35:32;101026.00;;;10.20;56.40
71697;BME280;68167;59.120;37.898;2023-05-14T02:37:58;101079.34;;;10.44;56.51
71697;BME280;68167;59.120;37.898;2023-05-14T02:40:25;101036.41;;;10.22;56.43
71697;BME280;68167;59.120;37.898;2023-05-14T02:42:52;101045.59;;;10.26;56.30
71697;BME280;68167;59.120;37.898;2023-05-14T02:45:19;101087.81;;;10.52;56.67
71697;BME280;68167;59.120;37.898;2023-05-14T02:47:46;101059.56;;;10.40;56.24
71697;BME280;68167;59.120;37.898;2023-05-14T02:50:13;101047.72;;;10.36;55.84
71697;BME280;68167;59.120;37.898;2023-05-14T02:52:39;101030.56;;;10.32;56.57
71697;BME280;68167;59.120;37.898;2023-05-14T02:55:06;101078.78;;;10.72;56.31
71697;BME280;68167;59.120;37.898;2023-05-14T02:57:33;101064.06;;;10.69;55.23
71697;BME280;68167;59.120;37.898;2023-05-14T02:59:59;101064.19;;;10.74;54.76
71697;BME280;68167;59.120;37.898;2023-05-14T03:02:26;101019.06;;;10.49;55.33
71697;BME280;68167;59.120;37.898;2023-05-14T03:04:52;101066.53;;;10.82;55.61
71697;BME280;68167;59.120;37.898;2023-05-14T03:07:19;101017.72;;;10.59;55.49
71697;BME280;68167;59.120;37.898;2023-05-14T03:09:45;101047.09;;;10.82;55.30
71697;BME280;68167;59.120;37.898;2023-05-14T03:12:12;101055.56;;;10.91;55.07
71697;BME280;68167;59.120;37.898;2023-05-14T03:14:39;101063.59;;;11.02;54.95
71697;BME280;68167;59.120;37.898;2023-05-14T03:17:06;101059.09;;;11.03;54.35
71697;BME280;68167;59.120;37.898;2023-05-14T03:19:32;101063.47;;;11.09;54.83
71697;BME280;68167;59.120;37.898;2023-05-14T03:21:59;101081.47;;;11.25;54.44
71697;BME280;68167;59.120;37.898;2023-05-14T03:24:25;101023.63;;;11.02;54.47
71697;BME280;68167;59.120;37.898;2023-05-14T03:26:51;101017.72;;;11.00;54.62
71697;BME280;68167;59.120;37.898;2023-05-14T03:29:18;101078.97;;;11.42;54.12
71697;BME280;68167;59.120;37.898;2023-05-14T03:31:45;101086.03;;;11.48;54.01
71697;BME280;68167;59.120;37.898;2023-05-14T03:34:12;101076.53;;;11.52;54.07
71697;BME280;68167;59.120;37.898;2023-05-14T03:36:38;101075.03;;;11.56;54.00
71697;BME280;68167;59.120;37.898;2023-05-14T03:39:05;101028.53;;;11.29;54.03
71697;BME280;68167;59.120;37.898;2023-05-14T03:41:35;101033.16;;;11.33;53.94
71697;BME280;68167;59.120;37.898;2023-05-14T03:44:02;100999.28;;;11.10;53.66
71697;BME280;68167;59.120;37.898;2023-05-14T03:46:29;101030.13;;;11.30;53.34
71697;BME280;68167;59.120;37.898;2023-05-14T03:48:55;101053.91;;;11.43;52.89
71697;BME280;68167;59.120;37.898;2023-05-14T03:51:22;101089.75;;;11.70;53.01
71697;BME280;68167;59.120;37.898;2023-05-14T03:53:49;100983.88;;;11.12;52.54
71697;BME280;68167;59.120;37.898;2023-05-14T03:56:15;101085.25;;;11.82;52.60
71697;BME280;68167;59.120;37.898;2023-05-14T03:58:42;101058.69;;;11.64;52.82
71697;BME280;68167;59.120;37.898;2023-05-14T04:01:09;101040.38;;;11.56;52.17
71697;BME280;68167;59.120;37.898;2023-05-14T04:03:36;101068.16;;;11.72;52.30
71697;BME280;68167;59.120;37.898;2023-05-14T04:06:02;101092.09;;;11.90;52.02
71697;BME280;68167;59.120;37.898;2023-05-14T04:08:29;101099.97;;;11.97;51.94
71697;BME280;68167;59.120;37.898;2023-05-14T04:10:56;101058.81;;;11.69;51.93
71697;BME280;68167;59.120;37.898;2023-05-14T04:13:22;101086.28;;;11.93;51.37
71697;BME280;68167;59.120;37.898;2023-05-14T04:15:49;101093.72;;;12.03;51.61
71697;BME280;68167;59.120;37.898;2023-05-14T04:18:15;101063.09;;;11.82;51.57
71697;BME280;68167;59.120;37.898;2023-05-14T04:20:42;101052.78;;;11.85;51.74
71697;BME280;68167;59.120;37.898;2023-05-14T04:23:08;101087.78;;;12.12;51.73
71697;BME280;68167;59.120;37.898;2023-05-14T04:25:35;101111.09;;;12.29;51.32
71697;BME280;68167;59.120;37.898;2023-05-14T04:28:02;101078.59;;;12.20;51.27
71697;BME280;68167;59.120;37.898;2023-05-14T04:30:28;101071.53;;;12.26;50.83
71697;BME280;68167;59.120;37.898;2023-05-14T04:32:55;101071.53;;;12.26;50.77
71697;BME280;68167;59.120;37.898;2023-05-14T04:35:21;101058.16;;;12.26;50.60
71697;BME280;68167;59.120;37.898;2023-05-14T04:37:48;101062.81;;;12.30;50.22
71697;BME280;68167;59.120;37.898;2023-05-14T04:40:14;101098.38;;;12.47;50.28
71697;BME280;68167;59.120;37.898;2023-05-14T04:42:44;101066.19;;;12.26;49.75
71697;BME280;68167;59.120;37.898;2023-05-14T04:45:11;101026.53;;;12.06;49.84
71697;BME280;68167;59.120;37.898;2023-05-14T04:47:38;101073.56;;;12.35;50.01
71697;BME280;68167;59.120;37.898;2023-05-14T04:50:05;101098.81;;;12.56;49.41
71697;BME280;68167;59.120;37.898;2023-05-14T04:52:32;101124.06;;;12.77;49.40
71697;BME280;68167;59.120;37.898;2023-05-14T04:55:01;101083.69;;;12.62;49.12
71697;BME280;68167;59.120;37.898;2023-05-14T04:57:28;101076.03;;;12.65;49.20
71697;BME280;68167;59.120;37.898;2023-05-14T04:59:55;101087.47;;;12.77;49.02
71697;BME280;68167;59.120;37.898;2023-05-14T05:02:21;101139.13;;;13.11;48.47
71697;BME280;68167;59.120;37.898;2023-05-14T05:04:47;101110.44;;;13.07;48.32
71697;BME280;68167;59.120;37.898;2023-05-14T05:07:14;101115.41;;;13.15;48.08
71697;BME280;68167;59.120;37.898;2023-05-14T05:09:42;101086.06;;;13.03;48.04
71697;BME280;68167;59.120;37.898;2023-05-14T05:12:09;101124.69;;;13.24;47.62
71697;BME280;68167;59.120;37.898;2023-05-14T05:14:35;101113.66;;;13.21;47.64
71697;BME280;68167;59.120;37.898;2023-05-14T05:17:02;101113.19;;;13.24;47.29
71697;BME280;68167;59.120;37.898;2023-05-14T05:19:29;101107.03;;;13.23;47.64
71697;BME280;68167;59.120;37.898;2023-05-14T05:21:55;101079.28;;;13.12;47.25
71697;BME280;68167;59.120;37.898;2023-05-14T05:24:22;101079.72;;;13.21;46.82
71697;BME280;68167;59.120;37.898;2023-05-14T05:26:48;101103.66;;;13.44;45.81
71697;BME280;68167;59.120;37.898;2023-05-14T05:29:16;101121.06;;;13.47;46.26
71697;BME280;68167;59.120;37.898;2023-05-14T05:31:43;101107.19;;;13.33;45.58
71697;BME280;68167;59.120;37.898;2023-05-14T05:34:09;101039.63;;;12.76;45.06
71697;BME280;68167;59.120;37.898;2023-05-14T05:36:36;101061.44;;;12.84;45.27
71697;BME280;68167;59.120;37.898;2023-05-14T05:39:02;101108.00;;;13.05;45.27
71697;BME280;68167;59.120;37.898;2023-05-14T05:41:29;100987.63;;;12.38;45.34
71697;BME280;68167;59.120;37.898;2023-05-14T05:43:55;101113.50;;;13.27;45.25
71697;BME280;68167;59.120;37.898;2023-05-14T05:46:22;101068.97;;;13.04;44.64
71697;BME280;68167;59.120;37.898;2023-05-14T05:48:48;101108.66;;;13.41;44.20
71697;BME280;68167;59.120;37.898;2023-05-14T05:51:15;101113.13;;;13.52;44.06
71697;BME280;68167;59.120;37.898;2023-05-14T05:53:41;101021.03;;;13.14;44.46
71697;BME280;68167;59.120;37.898;2023-05-14T05:56:08;101104.59;;;13.72;43.90
71697;BME280;68167;59.120;37.898;2023-05-14T05:58:35;101104.75;;;13.82;43.45
71697;BME280;68167;59.120;37.898;2023-05-14T06:01:01;101071.31;;;13.63;42.65
71697;BME280;68167;59.120;37.898;2023-05-14T06:03:28;101067.72;;;13.57;42.83
71697;BME280;68167;59.120;37.898;2023-05-14T06:05:54;101069.09;;;13.60;42.53
71697;BME280;68167;59.120;37.898;2023-05-14T06:08:20;101065.44;;;13.66;42.33
71697;BME280;68167;59.120;37.898;2023-05-14T06:10:47;101117.97;;;13.89;43.24
71697;BME280;68167;59.120;37.898;2023-05-14T06:13:13;101116.81;;;13.84;42.78
71697;BME280;68167;59.120;37.898;2023-05-14T06:15:40;101100.94;;;13.78;42.68
71697;BME280;68167;59.120;37.898;2023-05-14T06:18:06;101100.13;;;13.77;42.83
71697;BME280;68167;59.120;37.898;2023-05-14T06:20:33;101111.72;;;13.83;42.41
71697;BME280;68167;59.120;37.898;2023-05-14T06:23:00;101072.34;;;13.62;42.92
71697;BME280;68167;59.120;37.898;2023-05-14T06:25:26;101089.97;;;13.79;42.61
71697;BME280;68167;59.120;37.898;2023-05-14T06:27:53;101101.16;;;13.93;42.78
71697;BME280;68167;59.120;37.898;2023-05-14T06:30:19;101093.94;;;13.94;42.84
71697;BME280;68167;59.120;37.898;2023-05-14T06:32:45;101014.72;;;13.54;43.02
71697;BME280;68167;59.120;37.898;2023-05-14T06:35:11;100964.00;;;13.26;42.90
71697;BME280;68167;59.120;37.898;2023-05-14T06:37:37;101093.59;;;14.07;42.28
71697;BME280;68167;59.120;37.898;2023-05-14T06:40:04;101059.50;;;13.80;42.11
71697;BME280;68167;59.120;37.898;2023-05-14T06:42:32;101110.28;;;14.14;42.35
71697;BME280;68167;59.120;37.898;2023-05-14T06:44:59;101077.31;;;13.92;42.01
71697;BME280;68167;59.120;37.898;2023-05-14T06:47:25;101102.25;;;14.14;42.20
71697;BME280;68167;59.120;37.898;2023-05-14T06:49:51;101091.78;;;14.12;41.86
71697;BME280;68167;59.120;37.898;2023-05-14T06:52:18;101094.94;;;14.26;41.86
71697;BME280;68167;59.120;37.898;2023-05-14T06:54:44;101051.63;;;14.12;41.70
